Time;durP1;ratioP1;P1;durP2;ratioP2;P2;SDS_P1;SDS_P2;PMS_P1;PMS_P2;Temp;Humidity;BMP_temperature;BMP_pressure;BME280_temperature;BME280_humidity;BME280_pressure;Samples;Min_cycle;Max_cycle;Signal;HPM_P1;HPM_P2
2022/11/04 00:01:50;;;;;;;39.83;19.70;;;;;;;11.73;84.31;94830.03;5089735;28;20193;-78
2022/11/04 00:04:19;;;;;;;38.33;19.53;;;;;;;11.59;85.08;94828.59;5088815;28;20231;-79
2022/11/04 00:06:47;;;;;;;41.37;19.70;;;;;;;11.58;85.29;94815.78;5088796;28;20204;-79
2022/11/04 00:09:18;;;;;;;40.50;20.17;;;;;;;11.58;85.90;94827.00;5086726;28;20209;-79
2022/11/04 00:14:30;;;;;;;41.00;20.23;;;;;;;11.58;85.31;94819.19;5091058;28;20322;-79
2022/11/04 00:30:47;;;;;;;44.47;20.07;;;;;;;11.57;84.85;94817.59;5090603;28;20257;-80
2022/11/04 00:33:25;;;;;;;42.60;20.03;;;;;;;11.50;85.18;94814.28;5091595;28;20185;-80
2022/11/04 00:35:53;;;;;;;40.77;20.33;;;;;;;10.68;88.81;94806.97;5091703;28;20257;-80
2022/11/04 00:38:21;;;;;;;36.30;16.93;;;;;;;10.08;91.58;94813.63;5091799;28;20301;-80
2022/11/04 00:40:48;;;;;;;33.70;18.63;;;;;;;9.57;97.61;94805.97;5091113;28;20208;-79
2022/11/04 00:43:15;;;;;;;40.07;20.33;;;;;;;9.64;99.75;94802.31;5094354;28;20756;-81
2022/11/04 00:45:42;;;;;;;32.77;17.47;;;;;;;9.79;97.50;94804.63;5092694;28;20204;-80
2022/11/04 00:48:09;;;;;;;37.60;18.53;;;;;;;9.95;96.52;94801.56;5093068;28;20209;-80
2022/11/04 00:50:36;;;;;;;37.60;19.33;;;;;;;10.10;95.10;94796.84;5093024;28;20193;-80
2022/11/04 00:53:04;;;;;;;45.63;19.90;;;;;;;10.27;94.27;94794.56;5094293;28;20196;-81
2022/11/04 00:55:32;;;;;;;32.73;18.73;;;;;;;10.25;92.98;94768.78;5092621;28;20228;-80
2022/11/04 00:57:59;;;;;;;38.37;19.87;;;;;;;10.48;92.45;94793.34;5087089;28;20192;-81
2022/11/04 01:00:26;;;;;;;36.63;19.40;;;;;;;10.54;91.68;94787.31;5090680;28;20663;-83
2022/11/04 01:02:52;;;;;;;35.57;17.90;;;;;;;10.57;91.73;94790.28;5090930;28;20228;-85
2022/11/04 01:05:19;;;;;;;35.93;18.87;;;;;;;10.70;91.34;94791.97;5091632;28;20633;-81
2022/11/04 01:07:46;;;;;;;35.80;17.87;;;;;;;10.77;90.46;94787.50;5087837;28;20200;-80
2022/11/04 01:10:13;;;;;;;36.23;18.13;;;;;;;10.82;89.94;94788.44;5087265;28;20197;-82
2022/11/04 01:12:41;;;;;;;38.60;17.63;;;;;;;10.80;90.07;94782.66;5090345;28;20188;-82
2022/11/04 01:15:09;;;;;;;33.60;17.30;;;;;;;10.79;89.47;94782.88;5091165;28;20209;-81
2022/11/04 01:17:36;;;;;;;32.13;17.53;;;;;;;10.79;90.09;94788.09;5090705;28;20240;-82
2022/11/04 01:20:03;;;;;;;30.67;15.90;;;;;;;10.82;89.62;94770.22;5089969;28;20197;-81
2022/11/04 01:22:30;;;;;;;35.70;17.03;;;;;;;10.86;89.22;94767.19;5086113;28;20258;-83
2022/11/04 01:24:57;;;;;;;28.93;17.03;;;;;;;10.80;88.57;94748.88;5087504;28;20217;-79
2022/11/04 01:27:24;;;;;;;35.63;16.60;;;;;;;10.85;88.85;94770.84;5089472;28;20196;-79
2022/11/04 01:29:55;;;;;;;30.20;16.70;;;;;;;10.83;89.14;94763.22;5087222;28;20216;-79
2022/11/04 01:32:21;;;;;;;33.10;16.40;;;;;;;10.85;89.47;94770.84;5088057;28;20208;-79
2022/11/04 01:34:48;;;;;;;29.80;16.97;;;;;;;10.88;88.34;94762.59;5087406;28;20201;-79
2022/11/04 01:37:15;;;;;;;36.43;17.40;;;;;;;10.82;88.23;94759.06;5088877;28;20193;-80
2022/11/04 01:39:43;;;;;;;34.70;17.63;;;;;;;10.84;88.73;94770.03;5088527;28;20216;-79
2022/11/04 01:42:13;;;;;;;32.27;16.87;;;;;;;10.73;89.28;94771.56;5088986;28;20258;-80
2022/11/04 01:44:50;;;;;;;27.47;15.20;;;;;;;10.75;89.25;94766.94;5087867;28;20778;-79
2022/11/04 01:47:22;;;;;;;32.27;16.13;;;;;;;10.73;89.44;94757.75;5087455;28;20197;-78
2022/11/04 01:49:53;;;;;;;35.03;15.90;;;;;;;10.75;89.35;94756.53;5088798;28;20207;-77
2022/11/04 01:52:26;;;;;;;32.07;16.43;;;;;;;10.71;89.50;94751.97;5085889;28;20204;-78
2022/11/04 01:54:55;;;;;;;28.80;16.03;;;;;;;10.68;89.37;94750.59;5085639;28;20199;-78
2022/11/04 01:57:29;;;;;;;35.13;16.97;;;;;;;10.71;89.52;94749.34;5086585;28;20201;-78
2022/11/04 02:00:01;;;;;;;31.97;17.50;;;;;;;10.59;88.95;94756.31;5085871;28;20208;-78
2022/11/04 02:02:30;;;;;;;35.00;17.03;;;;;;;10.08;90.49;94752.13;5089757;28;20242;-80
2022/11/04 02:04:57;;;;;;;37.17;18.60;;;;;;;9.62;93.54;94751.66;5088533;28;20227;-80
2022/11/04 02:07:24;;;;;;;31.67;17.77;;;;;;;9.42;97.46;94743.19;5088540;28;20578;-80
2022/11/04 02:09:51;;;;;;;33.00;17.67;;;;;;;9.53;96.91;94747.72;5088007;28;20211;-79
2022/11/04 02:15:03;;;;;;;34.83;18.07;;;;;;;9.31;97.46;94736.88;5086676;28;20274;-81
2022/11/04 02:17:42;;;;;;;32.10;18.43;;;;;;;9.14;96.44;94735.75;5087772;28;20200;-81
2022/11/04 02:20:33;;;;;;;38.30;19.10;;;;;;;8.84;100.00;94740.66;5085839;28;20197;-82
2022/11/04 02:23:32;;;;;;;36.27;18.63;;;;;;;9.02;100.00;94740.00;5083437;28;20220;-79
2022/11/04 02:26:30;;;;;;;38.37;17.77;;;;;;;9.25;99.30;94726.53;5083636;28;20560;-81
2022/11/04 02:29:26;;;;;;;34.33;17.00;;;;;;;9.36;98.29;94728.47;5087065;28;20199;-80
2022/11/04 02:32:00;;;;;;;34.17;17.73;;;;;;;9.42;98.68;94727.63;5086644;28;20204;-79
2022/11/04 02:34:34;;;;;;;32.80;16.60;;;;;;;9.18;98.38;94734.31;5089422;28;20675;-79
2022/11/04 02:37:13;;;;;;;33.67;17.37;;;;;;;8.88;100.00;94725.50;5094137;28;20921;-79
2022/11/04 02:39:49;;;;;;;28.17;17.20;;;;;;;8.97;100.00;94724.28;5092521;28;20200;-80
2022/11/04 02:42:25;;;;;;;31.90;17.20;;;;;;;9.08;100.00;94726.22;5092858;28;20207;-81
2022/11/04 02:45:04;;;;;;;29.10;17.33;;;;;;;9.19;99.77;94720.38;5092470;28;20214;-79
2022/11/04 02:47:32;;;;;;;28.37;16.47;;;;;;;9.30;98.70;94735.28;5093071;28;20204;-81
2022/11/04 02:50:06;;;;;;;33.40;17.10;;;;;;;9.40;98.26;94721.84;5091426;28;20667;-82
2022/11/04 02:52:40;;;;;;;35.20;15.63;;;;;;;9.42;97.37;94709.47;5093501;28;20184;-81
2022/11/04 02:55:13;;;;;;;30.63;17.00;;;;;;;9.52;96.20;94720.19;5092738;28;20185;-81
2022/11/04 02:57:45;;;;;;;32.77;16.37;;;;;;;9.60;96.57;94732.91;5091879;28;20583;-79
2022/11/04 03:00:19;;;;;;;26.57;15.03;;;;;;;9.64;96.56;94723.69;5091206;28;20286;-80
2022/11/04 03:02:52;;;;;;;23.17;15.63;;;;;;;9.71;97.04;94729.63;5093289;28;20193;-80
2022/11/04 03:05:23;;;;;;;33.13;17.33;;;;;;;9.73;97.02;94721.63;5093169;28;20276;-80
2022/11/04 03:07:53;;;;;;;33.33;17.47;;;;;;;9.79;96.49;94720.78;5092220;28;20204;-80
2022/11/04 03:10:25;;;;;;;28.20;17.03;;;;;;;9.81;95.64;94722.19;5092215;28;20220;-80
2022/11/04 03:12:58;;;;;;;34.33;17.90;;;;;;;9.82;96.01;94725.56;5091694;28;20216;-79
2022/11/04 03:15:29;;;;;;;32.80;17.50;;;;;;;9.84;95.29;94720.97;5093269;28;20254;-80
2022/11/04 03:18:04;;;;;;;31.93;18.50;;;;;;;9.79;95.80;94718.19;5092491;28;20228;-81
2022/11/04 03:20:31;;;;;;;32.20;17.63;;;;;;;9.66;95.45;94706.13;5092481;28;20192;-78
2022/11/04 03:22:59;;;;;;;31.97;17.40;;;;;;;9.73;95.57;94717.22;5091961;28;20228;-80
2022/11/04 03:25:32;;;;;;;31.87;16.53;;;;;;;9.73;95.15;94730.22;5091770;28;20254;-80
2022/11/04 03:28:05;;;;;;;32.53;17.53;;;;;;;9.73;94.84;94734.59;5089935;28;20206;-79
2022/11/04 03:30:40;;;;;;;27.57;17.00;;;;;;;9.71;95.25;94724.44;5090684;28;20287;-78
2022/11/04 03:33:16;;;;;;;33.50;17.83;;;;;;;9.65;94.94;94718.31;5086817;28;20192;-78
2022/11/04 03:35:43;;;;;;;30.57;17.80;;;;;;;9.70;95.80;94723.66;5089159;28;20188;-79
2022/11/04 03:38:10;;;;;;;29.03;18.07;;;;;;;9.54;94.97;94718.19;5089400;28;20584;-79
2022/11/04 03:40:37;;;;;;;37.20;17.73;;;;;;;8.94;96.61;94719.50;5091906;28;20193;-78
2022/11/04 03:43:09;;;;;;;36.07;19.07;;;;;;;8.66;100.00;94726.78;5088037;28;20208;-78
2022/11/04 03:45:39;;;;;;;37.00;19.57;;;;;;;8.68;100.00;94720.41;5085051;28;20311;-78
2022/11/04 03:48:06;;;;;;;37.07;19.70;;;;;;;8.82;100.00;94721.13;5086975;28;20586;-77
2022/11/04 03:50:39;;;;;;;41.03;18.80;;;;;;;8.96;100.00;94712.31;5087896;28;20205;-77
2022/11/04 03:53:06;;;;;;;36.23;18.83;;;;;;;9.07;100.00;94711.66;5087908;28;20196;-77
2022/11/04 03:55:43;;;;;;;35.70;18.23;;;;;;;9.18;98.19;94715.41;5090138;28;20204;-79
2022/11/04 03:58:22;;;;;;;35.90;18.70;;;;;;;9.18;98.31;94708.41;5088941;28;20560;-79
2022/11/04 04:00:59;;;;;;;31.17;17.60;;;;;;;9.29;97.10;94717.34;5090679;28;20200;-80
2022/11/04 04:03:33;;;;;;;38.40;18.87;;;;;;;9.31;96.35;94710.94;5090118;28;20212;-80
2022/11/04 04:06:09;;;;;;;32.97;18.73;;;;;;;9.29;96.29;94709.56;5088389;28;20578;-79
2022/11/04 04:08:42;;;;;;;35.47;18.33;;;;;;;9.34;96.30;94709.72;5089604;28;20215;-79
2022/11/04 04:11:16;;;;;;;33.07;19.63;;;;;;;9.34;96.06;94704.53;5088260;28;20201;-78
2022/11/04 04:13:50;;;;;;;34.13;19.40;;;;;;;9.37;95.02;94706.72;5088873;28;20188;-79
2022/11/04 04:16:22;;;;;;;32.30;19.07;;;;;;;9.00;97.73;94705.72;5087188;28;20200;-78
2022/11/04 04:18:55;;;;;;;42.83;19.97;;;;;;;8.57;98.33;94707.28;5089062;28;20278;-78
2022/11/04 04:21:26;;;;;;;41.13;19.60;;;;;;;8.22;99.25;94698.97;5090646;28;20196;-81
2022/11/04 04:29:27;;;;;;;37.53;18.90;;;;;;;8.51;100.00;94701.13;5091108;28;20192;-81
2022/11/04 04:31:57;;;;;;;38.70;20.17;;;;;;;8.61;100.00;94704.06;5090920;28;20208;-80
2022/11/04 04:34:27;;;;;;;38.20;19.50;;;;;;;8.70;99.65;94702.84;5092682;28;20250;-81
2022/11/04 04:37:00;;;;;;;29.83;18.07;;;;;;;8.81;99.10;94702.19;5089632;28;20211;-78
2022/11/04 04:45:06;;;;;;;33.60;18.57;;;;;;;8.89;97.93;94688.19;5088905;28;20618;-78
2022/11/04 04:47:45;;;;;;;33.70;18.87;;;;;;;8.96;97.78;94707.94;5088663;28;20196;-80
2022/11/04 04:50:15;;;;;;;44.63;20.87;;;;;;;8.99;97.72;94712.69;5088231;28;20220;-78
2022/11/04 04:52:45;;;;;;;47.23;20.93;;;;;;;8.88;97.61;94684.84;5087610;28;20193;-79
2022/11/04 04:55:13;;;;;;;35.00;20.87;;;;;;;9.09;96.78;94717.44;5087805;28;20270;-80
2022/11/04 04:57:40;;;;;;;40.47;20.47;;;;;;;9.04;97.08;94710.28;5087646;28;20205;-79
2022/11/04 05:00:09;;;;;;;39.33;20.70;;;;;;;9.01;97.04;94713.28;5086799;28;20212;-78
2022/11/04 05:02:36;;;;;;;36.27;20.80;;;;;;;8.89;97.67;94711.53;5088029;28;20212;-79
2022/11/04 05:05:05;;;;;;;42.70;22.33;;;;;;;8.59;97.05;94705.28;5086572;28;20580;-80
2022/11/04 05:07:32;;;;;;;42.60;22.43;;;;;;;8.22;99.36;94707.53;5084796;28;20671;-78
2022/11/04 05:09:59;;;;;;;45.60;22.07;;;;;;;8.12;100.00;94708.94;5086149;28;20205;-80
2022/11/04 05:13:24;;;;;;;46.03;22.47;;;;;;;8.18;100.00;94716.69;5089994;28;20197;-78
2022/11/04 05:15:13;;;;;;;43.20;22.00;;;;;;;8.29;100.00;94708.34;5088858;28;20188;-77
2022/11/04 05:17:40;;;;;;;41.90;23.50;;;;;;;8.35;100.00;94694.59;5087399;28;20217;-79
2022/11/04 05:20:10;;;;;;;42.60;23.43;;;;;;;8.47;100.00;94700.72;5087131;28;20196;-77
2022/11/04 05:22:37;;;;;;;45.13;23.57;;;;;;;8.71;99.74;94711.41;5087746;28;20200;-79
2022/11/04 05:25:04;;;;;;;48.10;25.43;;;;;;;8.77;99.88;94718.38;5089880;28;20216;-78
2022/11/04 05:27:30;;;;;;;53.87;28.97;;;;;;;8.84;98.77;94712.16;5087086;28;20215;-78
2022/11/04 05:29:57;;;;;;;66.87;33.60;;;;;;;8.83;98.94;94730.50;5087199;28;20192;-77
2022/11/04 05:32:24;;;;;;;63.30;30.80;;;;;;;8.83;98.69;94728.69;5086261;28;20671;-78
2022/11/04 05:34:51;;;;;;;62.13;31.23;;;;;;;8.86;99.63;94732.69;5088078;28;20205;-78
2022/11/04 05:37:19;;;;;;;60.67;29.60;;;;;;;8.81;99.17;94722.94;5088100;28;20193;-77
2022/11/04 05:39:46;;;;;;;59.40;30.60;;;;;;;8.99;98.65;94735.22;5086699;28;20185;-78
2022/11/04 05:42:12;;;;;;;60.93;31.23;;;;;;;9.08;97.63;94744.38;5086630;28;20207;-77
2022/11/04 05:44:39;;;;;;;62.20;32.57;;;;;;;8.78;98.50;94738.09;5086130;28;20225;-78
2022/11/04 05:47:06;;;;;;;69.80;34.43;;;;;;;8.42;99.78;94744.56;5089103;28;20201;-78
2022/11/04 05:49:33;;;;;;;74.43;37.83;;;;;;;8.04;100.00;94750.53;5087164;28;20199;-78
2022/11/04 05:52:00;;;;;;;65.27;37.30;;;;;;;8.21;100.00;94741.38;5083628;28;20287;-77
2022/11/04 05:54:28;;;;;;;82.50;40.43;;;;;;;8.26;100.00;94739.78;5086834;28;20196;-79
2022/11/04 05:56:55;;;;;;;79.27;40.27;;;;;;;8.43;100.00;94743.56;5089796;28;20208;-83
2022/11/04 05:59:22;;;;;;;76.17;38.30;;;;;;;8.60;100.00;94754.28;5091766;28;20207;-84
2022/11/04 06:02:06;;;;;;;84.33;39.17;;;;;;;8.82;100.00;94744.47;5080564;28;20852;-84
2022/11/04 06:04:33;;;;;;;85.30;38.90;;;;;;;8.95;100.00;94739.22;5085675;28;20277;-76
2022/11/04 06:06:59;;;;;;;83.93;37.70;;;;;;;9.03;100.00;94749.38;5081574;28;20208;-77
2022/11/04 06:09:38;;;;;;;81.67;39.87;;;;;;;9.11;100.00;94749.94;5086623;28;20213;-76
2022/11/04 06:12:10;;;;;;;86.87;38.50;;;;;;;9.22;100.00;94748.47;5085143;28;20193;-75
2022/11/04 06:14:37;;;;;;;93.07;38.60;;;;;;;9.32;100.00;94756.59;5080976;28;20193;-76
2022/11/04 06:17:13;;;;;;;90.40;37.53;;;;;;;9.41;99.90;94751.97;5083693;28;20200;-75
2022/11/04 06:19:40;;;;;;;94.13;37.30;;;;;;;9.41;100.00;94746.78;5081767;28;20189;-77
2022/11/04 06:22:09;;;;;;;79.53;34.63;;;;;;;9.49;100.00;94744.75;5086674;28;20208;-76
2022/11/04 06:24:37;;;;;;;75.63;33.50;;;;;;;9.35;99.09;94745.81;5084441;28;20224;-76
2022/11/04 06:27:04;;;;;;;82.70;33.90;;;;;;;9.32;98.19;94755.81;5085220;28;20654;-75
2022/11/04 06:29:31;;;;;;;79.40;35.20;;;;;;;9.22;100.00;94752.88;5085307;28;20604;-75
2022/11/04 06:31:58;;;;;;;92.87;37.07;;;;;;;9.28;100.00;94752.03;5085461;28;21596;-76
2022/11/04 06:34:25;;;;;;;68.60;35.23;;;;;;;9.36;100.00;94757.78;5085111;28;20200;-76
2022/11/04 06:36:54;;;;;;;85.93;35.23;;;;;;;9.51;100.00;94754.91;5083850;28;20292;-77
2022/11/04 06:39:20;;;;;;;80.43;35.17;;;;;;;9.69;100.00;94760.19;5084324;28;20201;-76
2022/11/04 06:41:50;;;;;;;76.30;37.27;;;;;;;9.86;100.00;94763.88;5083480;28;20547;-77
2022/11/04 06:44:17;;;;;;;71.47;36.37;;;;;;;9.98;100.00;94762.19;5085125;28;20641;-76
2022/11/04 06:46:44;;;;;;;69.83;34.37;;;;;;;10.14;100.00;94766.88;5084054;28;20258;-76
2022/11/04 06:49:13;;;;;;;65.07;32.13;;;;;;;10.25;100.00;94760.19;5083487;28;20208;-76
2022/11/04 06:51:39;;;;;;;61.47;29.17;;;;;;;10.27;100.00;94756.38;5083768;28;20196;-76
2022/11/04 06:54:06;;;;;;;62.83;28.87;;;;;;;10.43;100.00;94769.84;5084842;28;20259;-76
2022/11/04 06:56:33;;;;;;;56.83;28.73;;;;;;;10.55;100.00;94761.13;5085816;28;20201;-77
2022/11/04 06:59:01;;;;;;;48.53;27.30;;;;;;;10.65;100.00;94750.22;5082270;28;20204;-76
2022/11/04 07:01:32;;;;;;;55.53;25.93;;;;;;;10.69;100.00;94747.00;5084551;28;20220;-77
2022/11/04 07:04:02;;;;;;;51.13;27.30;;;;;;;10.72;100.00;94737.97;5084215;28;20192;-76
2022/11/04 07:06:29;;;;;;;51.10;26.03;;;;;;;10.88;100.00;94747.00;5084781;28;20197;-76
2022/11/04 07:08:58;;;;;;;53.50;26.93;;;;;;;10.96;99.30;94749.31;5082323;28;21140;-76
2022/11/04 07:11:26;;;;;;;44.50;25.40;;;;;;;11.08;99.61;94755.38;5054683;28;20221;-75
2022/11/04 07:13:52;;;;;;;51.87;26.30;;;;;;;11.09;99.76;94743.94;5080072;28;20204;-76
2022/11/04 07:16:21;;;;;;;52.33;25.83;;;;;;;10.80;99.26;94724.66;5082884;28;20200;-76
2022/11/04 07:18:50;;;;;;;54.67;25.50;;;;;;;10.61;100.00;94738.69;5084155;28;20225;-77
2022/11/04 07:21:17;;;;;;;43.63;26.77;;;;;;;10.34;100.00;94730.34;5080967;28;20636;-76
2022/11/04 07:23:44;;;;;;;48.97;26.20;;;;;;;10.59;100.00;94732.91;5086999;28;20188;-77
2022/11/04 07:26:12;;;;;;;50.00;27.03;;;;;;;10.73;100.00;94727.38;5086108;28;21391;-75
2022/11/04 07:28:39;;;;;;;50.90;26.37;;;;;;;10.90;100.00;94734.56;5089450;28;20984;-77
2022/11/04 07:31:08;;;;;;;51.50;26.37;;;;;;;10.95;100.00;94716.50;5088885;28;20193;-77
2022/11/04 07:33:36;;;;;;;47.90;27.83;;;;;;;11.12;100.00;94730.50;5085587;28;20199;-77
2022/11/04 07:36:05;;;;;;;49.40;28.10;;;;;;;11.23;100.00;94716.75;5088736;28;20200;-76
2022/11/04 07:38:31;;;;;;;51.43;27.30;;;;;;;11.37;99.74;94716.34;5087181;28;20193;-79
2022/11/04 07:40:59;;;;;;;50.60;27.13;;;;;;;11.38;99.69;94723.16;5091224;28;20254;-80
2022/11/04 07:43:35;;;;;;;54.33;26.50;;;;;;;11.27;100.00;94717.91;5090653;28;20189;-80
2022/11/04 07:46:04;;;;;;;50.77;27.63;;;;;;;11.12;100.00;94720.09;5090847;28;20216;-80
2022/11/04 07:48:30;;;;;;;51.30;28.23;;;;;;;11.17;100.00;94712.41;5087384;28;20254;-79
2022/11/04 07:51:00;;;;;;;45.97;27.57;;;;;;;11.32;100.00;94705.81;5091609;28;20181;-79
2022/11/04 07:53:28;;;;;;;49.53;29.17;;;;;;;11.50;100.00;94710.19;5091178;28;20216;-80
2022/11/04 07:55:55;;;;;;;54.00;27.50;;;;;;;11.67;100.00;94712.94;5089520;28;20664;-75
2022/11/04 07:58:24;;;;;;;52.53;27.77;;;;;;;11.85;99.21;94711.09;5068470;28;20204;-78
2022/11/04 08:00:51;;;;;;;62.77;28.17;;;;;;;12.05;97.80;94715.19;5088750;28;20197;-79
2022/11/04 08:03:18;;;;;;;56.53;27.70;;;;;;;12.14;97.32;94701.63;5091865;28;20189;-79
2022/11/04 08:05:45;;;;;;;50.20;27.80;;;;;;;12.26;96.44;94710.22;5089762;28;20221;-80
2022/11/04 08:08:16;;;;;;;50.87;26.23;;;;;;;12.38;95.84;94702.41;5090148;28;20200;-78
2022/11/04 08:10:46;;;;;;;51.90;27.33;;;;;;;12.53;95.14;94697.50;5090393;28;20196;-79
2022/11/04 08:13:13;;;;;;;49.80;27.60;;;;;;;12.67;94.36;94698.09;5091153;28;20223;-78
2022/11/04 08:15:40;;;;;;;53.70;26.63;;;;;;;12.71;94.05;94692.16;5091028;28;20197;-79
2022/11/04 08:18:07;;;;;;;47.93;26.93;;;;;;;12.77;93.93;94690.44;5089584;28;20225;-79
2022/11/04 08:20:33;;;;;;;43.73;26.10;;;;;;;12.86;93.27;94694.28;5089417;28;20212;-78
2022/11/04 08:23:00;;;;;;;46.37;25.93;;;;;;;12.92;92.63;94682.94;5088223;28;20209;-78
2022/11/04 08:25:28;;;;;;;45.50;26.47;;;;;;;13.02;92.37;94677.91;5090318;28;20213;-78
2022/11/04 08:27:58;;;;;;;47.43;26.07;;;;;;;13.12;91.60;94688.56;5088632;28;20212;-77
2022/11/04 08:30:25;;;;;;;50.97;28.00;;;;;;;13.20;90.57;94674.34;5087692;28;20196;-78
2022/11/04 08:32:51;;;;;;;48.23;24.70;;;;;;;13.17;91.55;94670.41;5086763;28;20204;-78
2022/11/04 08:35:18;;;;;;;46.97;26.70;;;;;;;13.14;91.25;94663.03;5089363;28;20200;-78
2022/11/04 08:37:45;;;;;;;51.50;25.90;;;;;;;13.25;90.72;94675.22;5088312;28;20200;-78
2022/11/04 08:40:12;;;;;;;46.90;25.43;;;;;;;13.37;90.84;94662.94;5087793;28;20590;-79
2022/11/04 08:42:40;;;;;;;54.23;26.17;;;;;;;13.49;90.08;94662.88;5088220;28;20200;-78
2022/11/04 08:45:10;;;;;;;43.77;25.73;;;;;;;13.59;89.62;94661.22;5087697;28;20255;-78
2022/11/04 08:47:38;;;;;;;45.97;24.80;;;;;;;13.72;88.51;94660.13;5087039;28;20212;-78
2022/11/04 08:50:07;;;;;;;42.70;25.00;;;;;;;13.47;88.71;94659.72;5087529;28;20188;-77
2022/11/04 08:52:33;;;;;;;43.50;25.33;;;;;;;13.25;89.42;94664.78;5085735;28;20185;-78
2022/11/04 08:55:00;;;;;;;46.73;25.53;;;;;;;13.12;92.62;94651.25;5085721;28;20204;-76
2022/11/04 08:57:27;;;;;;;51.27;26.23;;;;;;;13.25;91.83;94656.97;5087837;28;20587;-74
2022/11/04 08:59:55;;;;;;;46.97;24.90;;;;;;;13.54;89.17;94647.28;5088112;28;20208;-78
2022/11/04 09:02:25;;;;;;;37.13;24.07;;;;;;;13.91;87.88;94655.47;5086743;28;20201;-77
2022/11/04 09:04:52;;;;;;;45.47;24.63;;;;;;;14.16;87.53;94633.13;5087745;28;20208;-77
2022/11/04 09:07:19;;;;;;;43.63;25.07;;;;;;;14.91;83.86;94650.03;5087252;28;20238;-77
2022/11/04 09:09:48;;;;;;;39.23;24.00;;;;;;;15.79;78.53;94647.00;5088978;28;20197;-77
2022/11/04 09:12:15;;;;;;;41.30;23.73;;;;;;;16.69;75.27;94643.41;5086687;28;20598;-78
2022/11/04 09:14:45;;;;;;;44.67;23.60;;;;;;;17.65;71.79;94646.34;5086895;28;20197;-79
2022/11/04 09:17:15;;;;;;;34.87;21.87;;;;;;;18.38;66.24;94637.91;5084978;28;20701;-77
2022/11/04 09:19:49;;;;;;;39.90;22.00;;;;;;;18.88;64.56;94636.19;5088998;28;20200;-78
2022/11/04 09:22:16;;;;;;;37.53;22.50;;;;;;;19.61;61.83;94639.81;5088876;28;20188;-78
2022/11/04 09:24:45;;;;;;;37.50;22.13;;;;;;;20.19;61.00;94630.91;5086974;28;20224;-77
2022/11/04 09:27:12;;;;;;;41.00;22.55;;;;;;;20.88;58.38;94630.47;5086209;28;20223;-78
2022/11/04 09:29:50;;;;;;;38.33;21.65;;;;;;;21.30;56.63;94632.34;5086009;28;20205;-78
2022/11/04 09:32:31;;;;;;;36.40;22.05;;;;;;;22.03;54.82;94632.63;5086024;28;20245;-78
2022/11/04 09:34:58;;;;;;;37.53;22.65;;;;;;;22.73;52.76;94631.69;5087631;28;20586;-77
2022/11/04 09:37:25;;;;;;;35.58;21.02;;;;;;;22.99;50.23;94633.56;5084665;28;20680;-82
2022/11/04 09:39:51;;;;;;;36.83;21.83;;;;;;;23.00;50.62;94629.06;5087116;28;20943;-77
2022/11/04 09:42:34;;;;;;;39.35;21.30;;;;;;;23.27;49.15;94617.63;5086745;28;21135;-77
2022/11/04 09:45:04;;;;;;;36.05;20.73;;;;;;;23.62;48.48;94615.00;5087528;28;20553;-80
2022/11/04 09:47:35;;;;;;;36.50;21.77;;;;;;;22.44;51.22;94600.16;5088734;28;20247;-78
2022/11/04 09:50:04;;;;;;;37.00;20.95;;;;;;;21.40;54.43;94597.06;5084386;28;20185;-77
2022/11/04 09:52:37;;;;;;;38.05;22.65;;;;;;;21.14;56.88;94587.91;5087955;28;20212;-79
2022/11/04 09:55:12;;;;;;;40.95;22.30;;;;;;;22.05;53.73;94590.75;5085785;28;20188;-78
2022/11/04 09:57:39;;;;;;;38.22;21.05;;;;;;;23.06;51.11;94583.56;5085699;28;20207;-77
2022/11/04 10:00:10;;;;;;;39.97;21.27;;;;;;;24.05;48.08;94594.06;5088162;28;20279;-78
2022/11/04 10:02:51;;;;;;;34.90;20.45;;;;;;;24.71;46.33;94576.44;5086641;28;20201;-77
2022/11/04 10:05:34;;;;;;;38.17;21.05;;;;;;;24.34;46.00;94580.34;5085814;28;20200;-78
2022/11/04 10:08:31;;;;;;;36.47;21.30;;;;;;;24.16;46.47;94578.69;5080118;28;20184;-79
2022/11/04 10:11:05;;;;;;;36.83;21.05;;;;;;;24.24;45.80;94570.00;5085827;28;20291;-80
2022/11/04 10:13:50;;;;;;;32.22;20.15;;;;;;;24.67;45.60;94560.34;5085587;28;20685;-81
2022/11/04 10:16:39;;;;;;;30.42;20.17;;;;;;;25.17;43.48;94575.94;5087939;28;20192;-81
2022/11/04 10:19:26;;;;;;;34.75;19.55;;;;;;;25.56;42.84;94567.09;5086690;28;20236;-81
2022/11/04 10:22:02;;;;;;;34.67;19.00;;;;;;;25.63;42.53;94554.84;5087964;28;20201;-82
2022/11/04 10:24:40;;;;;;;34.17;19.77;;;;;;;25.68;41.45;94559.25;5087973;28;20232;-81
2022/11/04 10:27:16;;;;;;;32.97;19.05;;;;;;;26.00;40.91;94542.75;5086631;28;20702;-82
2022/11/04 10:29:44;;;;;;;38.15;19.58;;;;;;;25.76;41.32;94548.59;5086235;28;20277;-82
2022/11/04 10:32:16;;;;;;;35.63;19.27;;;;;;;26.08;40.59;94535.84;5088722;28;20232;-82
2022/11/04 10:34:52;;;;;;;28.00;18.15;;;;;;;26.44;40.04;94531.66;5087889;28;20211;-81
2022/11/04 10:37:19;;;;;;;39.53;19.65;;;;;;;26.85;39.28;94527.56;5087080;28;20293;-83
2022/11/04 10:39:47;;;;;;;35.53;19.45;;;;;;;26.61;39.73;94524.69;5087623;28;20660;-82
2022/11/04 10:42:19;;;;;;;31.73;18.80;;;;;;;26.56;39.97;94508.88;5090072;28;20197;-83
2022/11/04 10:44:49;;;;;;;31.92;18.42;;;;;;;26.57;39.72;94510.44;5090717;28;20848;-82
2022/11/04 10:47:28;;;;;;;29.17;17.23;;;;;;;26.95;38.83;94508.53;5091247;28;20213;-83
2022/11/04 10:50:15;;;;;;;30.08;15.88;;;;;;;27.36;38.85;94508.53;5091128;28;20199;-81
2022/11/04 10:52:43;;;;;;;30.08;15.65;;;;;;;28.10;35.71;94492.47;5076286;28;20196;-79
2022/11/04 10:55:23;;;;;;;26.10;15.85;;;;;;;28.58;34.56;94488.25;5089811;28;20286;-83
2022/11/04 10:57:50;;;;;;;26.50;15.30;;;;;;;28.34;35.14;94467.63;5088928;28;20192;-82
2022/11/04 11:00:32;;;;;;;24.90;14.82;;;;;;;28.40;34.40;94487.69;5088127;28;20201;-83
2022/11/04 11:03:00;;;;;;;28.40;14.60;;;;;;;28.59;33.64;94477.25;5086109;28;20193;-79
2022/11/04 11:05:28;;;;;;;26.88;13.80;;;;;;;28.44;34.58;94475.22;5088906;28;20224;-81
2022/11/04 11:07:57;;;;;;;26.55;14.13;;;;;;;28.60;34.23;94468.09;5089902;28;20843;-81
2022/11/04 11:10:27;;;;;;;25.38;14.70;;;;;;;28.98;33.30;94459.69;5092167;28;20634;-82
2022/11/04 11:12:56;;;;;;;30.13;18.42;;;;;;;29.33;32.74;94467.22;5092054;28;20201;-82
2022/11/04 11:15:31;;;;;;;23.33;14.57;;;;;;;29.43;31.62;94462.16;5091491;28;20200;-80
2022/11/04 11:18:11;;;;;;;25.80;13.98;;;;;;;29.50;31.36;94461.56;5088013;28;20228;-81
2022/11/04 11:20:39;;;;;;;20.58;13.45;;;;;;;29.57;31.42;94449.16;5090287;28;21321;-79
2022/11/04 11:23:34;;;;;;;24.90;13.70;;;;;;;29.45;31.07;94443.06;5091199;28;20563;-80
2022/11/04 11:26:02;;;;;;;25.30;13.60;;;;;;;29.18;31.18;94434.66;5088446;28;20243;-80
2022/11/04 11:28:30;;;;;;;24.63;13.50;;;;;;;29.23;31.36;94434.47;5089017;28;20293;-79
2022/11/04 11:31:00;;;;;;;26.73;14.10;;;;;;;29.17;31.27;94422.41;5088382;28;20192;-81
2022/11/04 11:33:29;;;;;;;22.98;13.82;;;;;;;28.96;31.56;94408.41;5090876;28;20292;-79
2022/11/04 11:36:01;;;;;;;20.55;12.65;;;;;;;28.72;32.69;94408.47;5091140;28;20193;-82
2022/11/04 11:38:29;;;;;;;24.25;13.40;;;;;;;28.95;31.62;94403.38;5091207;28;20676;-82
2022/11/04 11:41:06;;;;;;;22.67;14.02;;;;;;;29.25;31.38;94405.44;5088040;28;20189;-82
2022/11/04 11:43:38;;;;;;;24.20;13.95;;;;;;;29.06;31.49;94397.22;5090194;28;20219;-82
2022/11/04 11:46:06;;;;;;;21.75;13.82;;;;;;;28.94;31.58;94402.63;5088050;28;20575;-79
2022/11/04 11:48:39;;;;;;;22.92;13.43;;;;;;;28.39;32.26;94383.75;5081030;28;20200;-80
2022/11/04 11:51:08;;;;;;;24.85;13.85;;;;;;;27.57;32.91;94377.66;5090423;28;20640;-79
2022/11/04 11:53:38;;;;;;;26.02;13.63;;;;;;;27.19;33.82;94374.41;5080801;28;20254;-77
2022/11/04 11:56:18;;;;;;;25.67;15.20;;;;;;;26.68;35.38;94372.94;5082088;28;20204;-76
2022/11/04 11:58:51;;;;;;;39.75;13.63;;;;;;;26.32;35.56;94368.94;5086822;28;20193;-77
2022/11/04 12:01:25;;;;;;;27.45;13.60;;;;;;;26.21;36.21;94365.09;5085499;28;20192;-77
2022/11/04 12:03:52;;;;;;;23.92;13.45;;;;;;;25.97;36.83;94362.25;5088114;28;20210;-76
2022/11/04 12:06:31;;;;;;;24.83;12.38;;;;;;;25.73;37.24;94372.69;5085984;28;20219;-77